Time;durP1;ratioP1;P1;durP2;ratioP2;P2;SDS_P1;SDS_P2;PMS_P1;PMS_P2;Temp;Humidity;BMP_temperature;BMP_pressure;BME280_temperature;BME280_humidity;BME280_pressure;Samples;Min_cycle;Max_cycle;Signal;HPM_P1;HPM_P2
2023/01/12 00:01:22;;;;;;;8.70;1.52;;;;;;;;;;5006833;28;20040;-68
2023/01/12 00:03:47;;;;;;;10.45;1.70;;;;;;;;;;4998910;28;20070;-67
2023/01/12 00:06:13;;;;;;;12.93;2.85;;;;;;;;;;5000990;28;20117;-68
2023/01/12 00:08:38;;;;;;;18.13;2.63;;;;;;;;;;5001956;28;20018;-67
2023/01/12 00:11:03;;;;;;;12.30;1.70;;;;;;;;;;4994271;28;20023;-67
2023/01/12 00:13:29;;;;;;;9.15;1.10;;;;;;;;;;5000200;28;20429;-67
2023/01/12 00:18:45;;;;;;;9.68;1.83;;;;;;;;;;4992454;28;20029;-67
2023/01/12 00:21:11;;;;;;;7.28;1.75;;;;;;;;;;5003423;28;20116;-70
2023/01/12 00:23:36;;;;;;;9.02;1.38;;;;;;;;;;5003161;28;20022;-68
2023/01/12 00:26:01;;;;;;;8.60;1.85;;;;;;;;;;5000614;28;20454;-69
2023/01/12 00:28:26;;;;;;;7.20;1.25;;;;;;;;;;5000671;28;20030;-69
2023/01/12 00:30:51;;;;;;;14.93;2.30;;;;;;;;;;4995165;28;20030;-67
2023/01/12 00:33:18;;;;;;;11.93;1.93;;;;;;;;;;5001998;28;20280;-68
2023/01/12 00:35:44;;;;;;;9.98;1.30;;;;;;;;;;5000922;28;20273;-68
2023/01/12 00:38:09;;;;;;;5.43;1.20;;;;;;;;;;5003781;28;20080;-70
2023/01/12 00:40:35;;;;;;;12.20;1.70;;;;;;;;;;4995746;28;20292;-67
2023/01/12 00:45:47;;;;;;;8.82;1.63;;;;;;;;;;4997645;28;20080;-67
2023/01/12 00:48:14;;;;;;;6.75;1.55;;;;;;;;;;5038529;23;20140;-68
2023/01/12 00:50:39;;;;;;;7.00;1.00;;;;;;;;;;5017501;28;20104;-68
2023/01/12 00:53:04;;;;;;;8.40;0.97;;;;;;;;;;4999372;28;20462;-69
2023/01/12 00:55:29;;;;;;;8.97;1.47;;;;;;;;;;5008986;28;20268;-69
2023/01/12 00:57:55;;;;;;;12.03;2.00;;;;;;;;;;5020670;28;20723;-69
2023/01/12 01:00:20;;;;;;;8.15;2.08;;;;;;;;;;5027770;28;20288;-70
2023/01/12 01:02:45;;;;;;;10.30;1.40;;;;;;;;;;5025619;28;20105;-69
2023/01/12 01:05:11;;;;;;;5.28;1.35;;;;;;;;;;5010343;28;20293;-68
2023/01/12 01:07:37;;;;;;;12.23;1.50;;;;;;;;;;5028008;28;20029;-69
2023/01/12 01:10:02;;;;;;;12.73;1.70;;;;;;;;;;5029881;28;20614;-68
2023/01/12 01:12:27;;;;;;;8.00;1.10;;;;;;;;;;5009072;28;20177;-68
2023/01/12 01:14:52;;;;;;;16.53;1.97;;;;;;;;;;5026942;28;20053;-68
2023/01/12 01:17:18;;;;;;;7.83;1.53;;;;;;;;;;5030457;28;20279;-69
2023/01/12 01:19:43;;;;;;;12.18;1.70;;;;;;;;;;5029461;28;20268;-68
2023/01/12 01:22:08;;;;;;;9.40;1.98;;;;;;;;;;5026587;28;20020;-68
2023/01/12 01:24:33;;;;;;;6.05;1.40;;;;;;;;;;5027591;28;20128;-69
2023/01/12 01:26:58;;;;;;;2.73;1.07;;;;;;;;;;5027695;28;20071;-68
2023/01/12 01:29:24;;;;;;;5.20;1.00;;;;;;;;;;5027509;28;20276;-68
2023/01/12 01:31:49;;;;;;;6.87;1.00;;;;;;;;;;5026423;28;20807;-69
2023/01/12 01:34:14;;;;;;;13.60;1.33;;;;;;;;;;5030126;28;20329;-69
2023/01/12 01:36:39;;;;;;;9.13;1.30;;;;;;;;;;5031630;28;20504;-68
2023/01/12 01:39:04;;;;;;;17.27;2.30;;;;;;;;;;5024701;28;20040;-69
2023/01/12 01:41:31;;;;;;;7.70;1.57;;;;;;;;;;5021698;28;20292;-68
2023/01/12 01:44:00;;;;;;;9.43;1.88;;;;;;;;;;5024626;28;20276;-69
2023/01/12 01:46:25;;;;;;;12.18;2.58;;;;;;;;;;5020449;28;20689;-68
2023/01/12 01:48:50;;;;;;;20.30;1.95;;;;;;;;;;5021645;28;20025;-67
2023/01/12 01:51:16;;;;;;;5.63;1.65;;;;;;;;;;5022104;28;20052;-67
2023/01/12 01:53:44;;;;;;;7.80;1.20;;;;;;;;;;5026636;28;20377;-68
2023/01/12 01:56:15;;;;;;;10.32;1.15;;;;;;;;;;5027882;28;20520;-69
2023/01/12 01:58:43;;;;;;;8.35;1.88;;;;;;;;;;5024002;28;20136;-68
2023/01/12 02:01:09;;;;;;;2.95;1.17;;;;;;;;;;5025787;28;20089;-68
2023/01/12 02:03:35;;;;;;;12.63;1.75;;;;;;;;;;5026774;28;20036;-69
2023/01/12 02:06:00;;;;;;;7.50;0.95;;;;;;;;;;5024787;28;20022;-69
2023/01/12 02:08:25;;;;;;;12.10;1.58;;;;;;;;;;5025022;28;20025;-68
2023/01/12 02:10:51;;;;;;;18.13;3.90;;;;;;;;;;5027676;28;20014;-68
2023/01/12 02:16:21;;;;;;;4.93;1.45;;;;;;;;;;5020209;28;20028;-68
2023/01/12 02:18:53;;;;;;;12.00;1.80;;;;;;;;;;5026305;28;20109;-69
2023/01/12 02:21:18;;;;;;;8.57;1.50;;;;;;;;;;5023810;28;20428;-68
2023/01/12 02:23:43;;;;;;;9.80;1.88;;;;;;;;;;5023386;28;20033;-69
2023/01/12 02:26:27;;;;;;;13.18;2.42;;;;;;;;;;5021206;28;20032;-68
2023/01/12 02:28:53;;;;;;;16.17;2.05;;;;;;;;;;5026815;28;20516;-68
2023/01/12 02:31:18;;;;;;;12.23;1.63;;;;;;;;;;5028115;28;20029;-69
2023/01/12 02:33:49;;;;;;;2.33;0.80;;;;;;;;;;5026168;28;20448;-69
2023/01/12 02:36:20;;;;;;;5.72;1.25;;;;;;;;;;5023990;28;20108;-68
2023/01/12 02:38:48;;;;;;;12.90;2.20;;;;;;;;;;5022755;28;20045;-69
2023/01/12 02:41:13;;;;;;;10.02;1.63;;;;;;;;;;5026251;28;20098;-68
2023/01/12 02:43:40;;;;;;;12.80;1.70;;;;;;;;;;5028988;28;20021;-67
2023/01/12 02:46:20;;;;;;;13.73;2.72;;;;;;;;;;5027893;28;20395;-68
2023/01/12 02:48:54;;;;;;;5.15;0.98;;;;;;;;;;5025747;28;20045;-68
2023/01/12 02:51:46;;;;;;;9.30;1.10;;;;;;;;;;5020748;28;20309;-68
2023/01/12 02:54:12;;;;;;;7.85;1.70;;;;;;;;;;4990778;28;20029;-67
2023/01/12 02:56:39;;;;;;;12.75;1.40;;;;;;;;;;5022073;28;20021;-68
2023/01/12 02:59:08;;;;;;;25.15;2.05;;;;;;;;;;5025439;28;20104;-68
2023/01/12 03:01:34;;;;;;;18.45;1.70;;;;;;;;;;5028897;28;20463;-68
2023/01/12 03:04:01;;;;;;;7.95;1.05;;;;;;;;;;5025261;28;20065;-68
2023/01/12 03:06:36;;;;;;;13.90;2.17;;;;;;;;;;5025764;28;20096;-68
2023/01/12 03:09:01;;;;;;;11.40;1.63;;;;;;;;;;5023133;28;20018;-68
2023/01/12 03:11:26;;;;;;;9.65;2.00;;;;;;;;;;5027835;28;20021;-68
2023/01/12 03:13:54;;;;;;;10.52;1.15;;;;;;;;;;5025199;28;20021;-68
2023/01/12 03:16:22;;;;;;;9.98;1.27;;;;;;;;;;5027194;28;20469;-67
2023/01/12 03:18:47;;;;;;;7.00;1.23;;;;;;;;;;5027116;28;20417;-67
2023/01/12 03:21:16;;;;;;;7.97;1.27;;;;;;;;;;5028626;28;20033;-68
2023/01/12 03:23:46;;;;;;;5.97;1.15;;;;;;;;;;5026122;28;20268;-68
2023/01/12 03:26:13;;;;;;;10.75;2.08;;;;;;;;;;5028112;28;20049;-69
2023/01/12 03:28:42;;;;;;;12.32;1.80;;;;;;;;;;5025954;28;20026;-68
2023/01/12 03:31:10;;;;;;;9.02;1.90;;;;;;;;;;5019511;28;20028;-68
2023/01/12 03:33:36;;;;;;;3.13;0.93;;;;;;;;;;5026379;28;20493;-68
2023/01/12 03:36:14;;;;;;;5.28;1.15;;;;;;;;;;5022643;28;20020;-68
2023/01/12 03:38:45;;;;;;;8.80;1.75;;;;;;;;;;5022737;28;20080;-68
2023/01/12 03:41:29;;;;;;;12.80;0.90;;;;;;;;;;5020432;28;20029;-69
2023/01/12 03:43:56;;;;;;;13.85;1.08;;;;;;;;;;5018970;28;20025;-68
2023/01/12 03:46:26;;;;;;;12.20;1.00;;;;;;;;;;5019896;28;20457;-68
2023/01/12 03:48:53;;;;;;;5.22;1.10;;;;;;;;;;5020298;28;20029;-69
2023/01/12 03:51:21;;;;;;;5.93;1.40;;;;;;;;;;5027160;28;20172;-69
2023/01/12 03:53:48;;;;;;;5.55;0.75;;;;;;;;;;5019257;28;20097;-69
2023/01/12 03:56:14;;;;;;;4.20;1.33;;;;;;;;;;5019361;28;20026;-68
2023/01/12 03:58:40;;;;;;;9.75;1.10;;;;;;;;;;5020362;28;20014;-69
2023/01/12 04:01:05;;;;;;;6.10;1.23;;;;;;;;;;5022737;28;20016;-70
2023/01/12 04:03:30;;;;;;;5.43;1.08;;;;;;;;;;5026937;28;20375;-69
2023/01/12 04:05:55;;;;;;;6.03;1.27;;;;;;;;;;5027043;28;20014;-70
2023/01/12 04:08:21;;;;;;;3.63;0.57;;;;;;;;;;5022764;28;20680;-69
2023/01/12 04:10:46;;;;;;;7.90;0.90;;;;;;;;;;5024806;28;20276;-69
2023/01/12 04:13:12;;;;;;;7.38;0.95;;;;;;;;;;5024561;28;20398;-69
2023/01/12 04:15:41;;;;;;;6.45;1.70;;;;;;;;;;5021024;28;20014;-68
2023/01/12 04:18:07;;;;;;;5.22;0.77;;;;;;;;;;5023123;28;20076;-68
2023/01/12 04:20:32;;;;;;;4.80;1.42;;;;;;;;;;5022377;28;20047;-69
2023/01/12 04:22:57;;;;;;;2.20;0.63;;;;;;;;;;5026945;28;20033;-68
2023/01/12 04:25:22;;;;;;;7.15;1.30;;;;;;;;;;5028868;28;20280;-68
2023/01/12 04:27:55;;;;;;;2.38;0.60;;;;;;;;;;5029327;28;20539;-68
2023/01/12 04:30:23;;;;;;;4.60;1.23;;;;;;;;;;5027549;28;20026;-68
2023/01/12 04:32:48;;;;;;;3.05;0.88;;;;;;;;;;5029365;28;20030;-69
2023/01/12 04:35:15;;;;;;;8.55;0.90;;;;;;;;;;5030366;28;20125;-69
2023/01/12 04:37:40;;;;;;;8.80;1.25;;;;;;;;;;5029662;28;20021;-68
2023/01/12 04:40:06;;;;;;;3.65;0.73;;;;;;;;;;5029961;28;20018;-69
2023/01/12 04:45:15;;;;;;;13.45;0.57;;;;;;;;;;5025875;28;20064;-68
2023/01/12 04:47:40;;;;;;;1.13;0.47;;;;;;;;;;5024956;28;20029;-70
2023/01/12 04:50:05;;;;;;;5.27;0.77;;;;;;;;;;5030976;28;20029;-68
2023/01/12 04:52:31;;;;;;;8.82;0.80;;;;;;;;;;5025062;28;20614;-69
2023/01/12 04:54:56;;;;;;;6.93;1.25;;;;;;;;;;5027685;28;20013;-68
2023/01/12 04:57:21;;;;;;;2.50;0.63;;;;;;;;;;5028740;28;20304;-70
2023/01/12 04:59:46;;;;;;;4.97;1.63;;;;;;;;;;5028837;28;20322;-71
2023/01/12 05:02:11;;;;;;;2.30;0.83;;;;;;;;;;5030326;28;20497;-69
2023/01/12 05:04:37;;;;;;;1.65;0.55;;;;;;;;;;5029240;28;20279;-69
2023/01/12 05:07:02;;;;;;;14.80;0.82;;;;;;;;;;5029661;28;20017;-69
2023/01/12 05:12:11;;;;;;;2.72;0.93;;;;;;;;;;5029979;28;20056;-69
2023/01/12 05:14:36;;;;;;;4.77;1.20;;;;;;;;;;5028664;28;20033;-69
2023/01/12 05:17:02;;;;;;;1.77;0.57;;;;;;;;;;5028210;28;20295;-69
2023/01/12 05:19:27;;;;;;;2.47;0.65;;;;;;;;;;5031475;28;20256;-70
2023/01/12 05:21:52;;;;;;;2.60;1.13;;;;;;;;;;5030278;28;20033;-70
2023/01/12 05:24:17;;;;;;;2.07;0.40;;;;;;;;;;5031292;28;20807;-70
2023/01/12 05:26:42;;;;;;;2.83;0.55;;;;;;;;;;5027073;28;20272;-70
2023/01/12 05:29:10;;;;;;;3.65;0.88;;;;;;;;;;5027293;28;20075;-71
2023/01/12 05:31:35;;;;;;;1.02;0.55;;;;;;;;;;5023955;28;20029;-70
2023/01/12 05:34:00;;;;;;;0.80;0.57;;;;;;;;;;5019082;28;20405;-70
2023/01/12 05:36:25;;;;;;;4.82;1.23;;;;;;;;;;5024707;28;20273;-70
2023/01/12 05:38:50;;;;;;;5.63;0.90;;;;;;;;;;5021671;28;20013;-70
2023/01/12 05:41:16;;;;;;;1.93;0.57;;;;;;;;;;5022545;28;20029;-70
2023/01/12 05:43:50;;;;;;;1.37;0.60;;;;;;;;;;5027054;28;20765;-70
2023/01/12 05:46:16;;;;;;;6.60;1.60;;;;;;;;;;5022077;28;20280;-70
2023/01/12 05:48:42;;;;;;;5.15;0.68;;;;;;;;;;5023200;28;20033;-70
2023/01/12 05:51:08;;;;;;;9.67;0.83;;;;;;;;;;5020702;28;20017;-70
2023/01/12 05:53:33;;;;;;;2.38;0.68;;;;;;;;;;5022588;28;20314;-70
2023/01/12 05:56:04;;;;;;;2.20;0.75;;;;;;;;;;5024622;28;20045;-70
2023/01/12 05:58:29;;;;;;;12.30;0.90;;;;;;;;;;5019497;28;20780;-69
2023/01/12 06:00:54;;;;;;;0.47;0.47;;;;;;;;;;5024291;28;20037;-69
2023/01/12 06:03:19;;;;;;;1.83;0.53;;;;;;;;;;5023817;28;20598;-70
2023/01/12 06:05:50;;;;;;;4.43;0.60;;;;;;;;;;5024649;28;20283;-70
2023/01/12 06:08:15;;;;;;;8.73;1.75;;;;;;;;;;5006364;28;20614;-70
2023/01/12 06:10:41;;;;;;;4.53;0.60;;;;;;;;;;5023478;28;20032;-71
2023/01/12 06:15:51;;;;;;;2.78;0.75;;;;;;;;;;5021698;28;20342;-70
2023/01/12 06:18:17;;;;;;;2.43;0.53;;;;;;;;;;5025700;28;20309;-68
2023/01/12 06:20:42;;;;;;;10.02;0.73;;;;;;;;;;5025107;28;20694;-70
2023/01/12 06:23:07;;;;;;;4.03;0.40;;;;;;;;;;5024210;28;20064;-70
2023/01/12 06:25:33;;;;;;;6.37;0.70;;;;;;;;;;5000602;28;20062;-70
2023/01/12 06:27:58;;;;;;;3.33;0.50;;;;;;;;;;5025206;28;20276;-70
2023/01/12 06:30:23;;;;;;;1.93;0.63;;;;;;;;;;5026949;28;20017;-70
2023/01/12 06:32:48;;;;;;;4.75;0.75;;;;;;;;;;5021082;28;20287;-70
2023/01/12 06:35:13;;;;;;;5.13;0.80;;;;;;;;;;5022194;28;20540;-70
2023/01/12 06:37:39;;;;;;;2.77;0.63;;;;;;;;;;5023343;28;20021;-70
2023/01/12 06:40:04;;;;;;;3.10;0.63;;;;;;;;;;5025882;28;20275;-70
2023/01/12 06:42:30;;;;;;;1.63;0.57;;;;;;;;;;5026143;28;20359;-70
2023/01/12 06:44:55;;;;;;;2.60;0.50;;;;;;;;;;5025535;28;20056;-70
2023/01/12 06:47:21;;;;;;;2.28;0.70;;;;;;;;;;5047563;23;20029;-69
2023/01/12 06:49:46;;;;;;;0.40;0.20;;;;;;;;;;5027414;28;20022;-70
2023/01/12 06:52:11;;;;;;;0.80;0.47;;;;;;;;;;5023985;28;20705;-69
2023/01/12 06:54:36;;;;;;;7.47;0.90;;;;;;;;;;5025728;28;20067;-69
2023/01/12 06:57:02;;;;;;;3.53;0.87;;;;;;;;;;5028312;28;20272;-69
2023/01/12 06:59:27;;;;;;;1.30;0.20;;;;;;;;;;5012215;28;20261;-70
2023/01/12 07:01:52;;;;;;;3.72;0.82;;;;;;;;;;5016836;28;20032;-69
2023/01/12 07:04:17;;;;;;;0.20;0.20;;;;;;;;;;5008939;28;20029;-69
2023/01/12 07:06:42;;;;;;;1.70;0.50;;;;;;;;;;5006040;28;20026;-70
2023/01/12 07:09:08;;;;;;;2.30;0.55;;;;;;;;;;5008625;28;20379;-69
2023/01/12 07:11:33;;;;;;;1.95;0.65;;;;;;;;;;5011717;28;20056;-72
2023/01/12 07:13:58;;;;;;;3.27;0.50;;;;;;;;;;5012864;28;21679;-69
2023/01/12 07:16:23;;;;;;;1.30;0.57;;;;;;;;;;5020455;28;20287;-70
2023/01/12 07:18:48;;;;;;;0.65;0.38;;;;;;;;;;5017299;28;20470;-70
2023/01/12 07:21:15;;;;;;;3.40;0.75;;;;;;;;;;5022737;28;20107;-70
2023/01/12 07:23:42;;;;;;;4.30;0.65;;;;;;;;;;5020828;28;20145;-69
2023/01/12 07:26:07;;;;;;;5.68;0.68;;;;;;;;;;5015427;28;20070;-69
2023/01/12 07:28:33;;;;;;;2.67;0.50;;;;;;;;;;5007615;28;20474;-69
2023/01/12 07:31:01;;;;;;;0.45;0.20;;;;;;;;;;5009884;28;20053;-71
2023/01/12 07:33:28;;;;;;;6.63;0.82;;;;;;;;;;5013429;28;20048;-69
2023/01/12 07:35:56;;;;;;;7.43;1.08;;;;;;;;;;5009437;28;20010;-69
2023/01/12 07:38:21;;;;;;;7.43;1.05;;;;;;;;;;5018246;28;20025;-70
2023/01/12 07:40:46;;;;;;;3.17;0.70;;;;;;;;;;5025570;28;20036;-71
2023/01/12 07:43:13;;;;;;;2.55;0.52;;;;;;;;;;5017243;28;20341;-70
2023/01/12 07:45:38;;;;;;;1.58;0.52;;;;;;;;;;5015889;28;20474;-70
2023/01/12 07:48:04;;;;;;;1.90;0.53;;;;;;;;;;5022151;28;20034;-69
2023/01/12 07:50:29;;;;;;;2.85;0.70;;;;;;;;;;5014879;28;20356;-69
2023/01/12 07:52:54;;;;;;;3.42;0.60;;;;;;;;;;5009401;28;20051;-69
2023/01/12 07:55:20;;;;;;;1.95;0.55;;;;;;;;;;5012379;28;20029;-71
2023/01/12 07:57:55;;;;;;;6.15;0.88;;;;;;;;;;5008140;28;20053;-70
2023/01/12 08:00:22;;;;;;;5.82;1.10;;;;;;;;;;5013292;28;20021;-69
2023/01/12 08:02:47;;;;;;;8.27;1.05;;;;;;;;;;5022293;28;20025;-69
2023/01/12 08:05:13;;;;;;;3.60;0.82;;;;;;;;;;5017840;28;20393;-70
2023/01/12 08:07:38;;;;;;;3.40;0.90;;;;;;;;;;5024844;28;20454;-69
2023/01/12 08:10:04;;;;;;;1.75;0.55;;;;;;;;;;5023021;28;20353;-69
2023/01/12 08:12:29;;;;;;;14.90;1.13;;;;;;;;;;5028608;28;20021;-71
2023/01/12 08:14:54;;;;;;;7.22;0.85;;;;;;;;;;5020243;28;20025;-69
2023/01/12 08:17:21;;;;;;;6.80;1.00;;;;;;;;;;5029899;28;20132;-70
2023/01/12 08:19:50;;;;;;;5.93;0.30;;;;;;;;;;5021031;28;20272;-69
2023/01/12 08:22:19;;;;;;;2.33;0.77;;;;;;;;;;4999139;28;20053;-69
2023/01/12 08:24:47;;;;;;;10.13;0.60;;;;;;;;;;5014639;28;20474;-70
2023/01/12 08:27:12;;;;;;;1.25;0.40;;;;;;;;;;5017222;28;20040;-69
2023/01/12 08:29:45;;;;;;;2.53;0.82;;;;;;;;;;5017751;28;20022;-71
2023/01/12 08:32:12;;;;;;;3.10;0.77;;;;;;;;;;5012035;28;20048;-70
2023/01/12 08:34:39;;;;;;;2.08;0.70;;;;;;;;;;5008879;28;20470;-70
2023/01/12 08:37:05;;;;;;;3.40;0.30;;;;;;;;;;5012317;28;20025;-69
2023/01/12 08:39:30;;;;;;;2.33;0.70;;;;;;;;;;5015734;28;20025;-70
2023/01/12 08:41:55;;;;;;;1.73;0.32;;;;;;;;;;5025272;28;20542;-70
2023/01/12 08:44:21;;;;;;;3.00;0.55;;;;;;;;;;5021335;28;20037;-69
2023/01/12 08:46:51;;;;;;;1.95;0.45;;;;;;;;;;5018850;28;20033;-72
2023/01/12 08:49:17;;;;;;;3.50;0.43;;;;;;;;;;5008757;28;20064;-69
2023/01/12 08:51:43;;;;;;;3.42;0.47;;;;;;;;;;5020410;28;20067;-69
2023/01/12 08:54:09;;;;;;;1.33;0.32;;;;;;;;;;5021104;28;20021;-70
2023/01/12 08:56:35;;;;;;;2.90;0.30;;;;;;;;;;4996482;28;20027;-69
2023/01/12 08:59:00;;;;;;;0.75;0.20;;;;;;;;;;5023160;28;20014;-70
2023/01/12 09:01:26;;;;;;;1.15;0.40;;;;;;;;;;5027592;28;20133;-70
2023/01/12 09:03:51;;;;;;;0.98;0.47;;;;;;;;;;5019519;28;20018;-70
2023/01/12 09:06:16;;;;;;;4.05;0.40;;;;;;;;;;5028031;28;20018;-70
2023/01/12 09:08:42;;;;;;;2.95;0.43;;;;;;;;;;4996297;28;20037;-69
2023/01/12 09:11:08;;;;;;;1.45;0.30;;;;;;;;;;5022751;28;20045;-70
2023/01/12 09:13:33;;;;;;;3.08;0.50;;;;;;;;;;5028525;28;20056;-69
2023/01/12 09:16:05;;;;;;;0.30;0.20;;;;;;;;;;5021628;28;20230;-69
2023/01/12 09:18:31;;;;;;;6.57;0.95;;;;;;;;;;5018993;28;20505;-69
2023/01/12 09:21:03;;;;;;;0.73;0.25;;;;;;;;;;5022864;28;20029;-69
2023/01/12 09:23:29;;;;;;;4.50;0.50;;;;;;;;;;5027642;28;20025;-69
2023/01/12 09:25:54;;;;;;;4.78;0.90;;;;;;;;;;5017103;28;20026;-70
2023/01/12 09:28:20;;;;;;;1.42;0.30;;;;;;;;;;5020661;28;20021;-70
2023/01/12 09:30:45;;;;;;;4.65;0.68;;;;;;;;;;5023453;28;20036;-69
2023/01/12 09:33:11;;;;;;;1.70;0.30;;;;;;;;;;5019949;28;20387;-72
2023/01/12 09:35:36;;;;;;;2.72;0.45;;;;;;;;;;5027366;28;20276;-71
2023/01/12 09:38:01;;;;;;;3.88;0.93;;;;;;;;;;5027050;28;20092;-69
2023/01/12 09:40:27;;;;;;;2.33;0.40;;;;;;;;;;5021835;28;20462;-70
2023/01/12 09:48:23;;;;;;;0.65;0.40;;;;;;;;;;5022343;28;20044;-69
2023/01/12 09:50:54;;;;;;;2.03;0.52;;;;;;;;;;5017708;28;20021;-69
2023/01/12 09:53:22;;;;;;;0.10;0.10;;;;;;;;;;5016493;28;20492;-70
2023/01/12 09:55:50;;;;;;;1.13;0.22;;;;;;;;;;5010209;28;20026;-69
2023/01/12 09:58:23;;;;;;;3.30;0.30;;;;;;;;;;5010809;28;20390;-70
2023/01/12 10:00:51;;;;;;;1.25;0.32;;;;;;;;;;5000897;28;20545;-70
2023/01/12 10:03:19;;;;;;;0.55;0.20;;;;;;;;;;4993091;28;20546;-69
2023/01/12 10:05:50;;;;;;;0.47;0.30;;;;;;;;;;5006054;28;20382;-69
2023/01/12 10:08:15;;;;;;;;;;;;;;;;;;5001686;28;20026;-69
2023/01/12 10:10:43;;;;;;;1.75;0.40;;;;;;;;;;5001110;28;19994;-69
2023/01/12 10:13:12;;;;;;;3.60;0.40;;;;;;;;;;5007141;28;20024;-70
2023/01/12 10:15:57;;;;;;;1.20;0.40;;;;;;;;;;4999791;28;20068;-69
2023/01/12 10:18:32;;;;;;;2.13;0.50;;;;;;;;;;5001155;28;20495;-69
2023/01/12 10:20:58;;;;;;;0.20;0.10;;;;;;;;;;4997157;28;20032;-70
2023/01/12 10:23:25;;;;;;;1.27;0.40;;;;;;;;;;4995277;28;20018;-71
2023/01/12 10:25:58;;;;;;;2.03;0.60;;;;;;;;;;5004889;28;20113;-72
2023/01/12 10:28:28;;;;;;;1.00;0.60;;;;;;;;;;4999338;28;20021;-68
2023/01/12 10:30:54;;;;;;;5.00;0.52;;;;;;;;;;4998853;28;20075;-69
2023/01/12 10:33:26;;;;;;;1.67;0.45;;;;;;;;;;4997369;28;20037;-69
2023/01/12 10:35:57;;;;;;;2.75;0.43;;;;;;;;;;4998363;28;20084;-69
2023/01/12 10:38:31;;;;;;;2.53;0.60;;;;;;;;;;4985899;28;20723;-70
2023/01/12 10:41:08;;;;;;;0.77;0.38;;;;;;;;;;5002850;28;20513;-69
2023/01/12 10:43:33;;;;;;;1.13;0.38;;;;;;;;;;5006334;28;20096;-69
2023/01/12 10:46:04;;;;;;;1.98;0.30;;;;;;;;;;5009039;28;20104;-72
2023/01/12 10:48:29;;;;;;;4.47;0.20;;;;;;;;;;5007751;28;20034;-71
2023/01/12 10:51:02;;;;;;;0.82;0.20;;;;;;;;;;4997697;28;20098;-72
2023/01/12 10:53:36;;;;;;;0.88;0.35;;;;;;;;;;5009036;28;20068;-69
2023/01/12 10:56:31;;;;;;;1.52;0.30;;;;;;;;;;5005570;28;20462;-71
2023/01/12 10:58:58;;;;;;;1.80;0.77;;;;;;;;;;4996974;28;20121;-70
2023/01/12 11:01:23;;;;;;;3.03;0.60;;;;;;;;;;5009850;28;20026;-69
2023/01/12 11:03:48;;;;;;;2.72;0.35;;;;;;;;;;5005630;28;20017;-69
2023/01/12 11:06:22;;;;;;;0.95;0.30;;;;;;;;;;5000730;28;20061;-69
2023/01/12 11:08:47;;;;;;;1.25;0.20;;;;;;;;;;5003870;28;20097;-69
2023/01/12 11:11:22;;;;;;;1.13;0.30;;;;;;;;;;4996539;28;20165;-69
2023/01/12 11:13:50;;;;;;;0.68;0.20;;;;;;;;;;4998647;28;20360;-69
2023/01/12 11:16:23;;;;;;;4.10;0.57;;;;;;;;;;4999229;28;20037;-68
2023/01/12 11:18:54;;;;;;;2.42;0.43;;;;;;;;;;4999200;28;20211;-73
2023/01/12 11:21:22;;;;;;;1.80;0.20;;;;;;;;;;4996286;28;20477;-69
2023/01/12 11:24:02;;;;;;;0.98;0.43;;;;;;;;;;4994711;28;20018;-69
2023/01/12 11:26:27;;;;;;;;;;;;;;;;;;5007077;28;20041;-70
2023/01/12 11:28:55;;;;;;;1.20;0.20;;;;;;;;;;5003963;28;20463;-69
2023/01/12 11:31:27;;;;;;;0.98;0.35;;;;;;;;;;5002987;28;20253;-68
2023/01/12 11:33:55;;;;;;;1.75;0.40;;;;;;;;;;4998400;28;20011;-69
2023/01/12 11:36:23;;;;;;;1.13;0.40;;;;;;;;;;5009298;28;20033;-68
2023/01/12 11:38:50;;;;;;;5.43;0.63;;;;;;;;;;5007986;28;20014;-69
2023/01/12 11:41:21;;;;;;;3.92;0.40;;;;;;;;;;5005959;28;20479;-69
2023/01/12 11:44:05;;;;;;;1.35;0.60;;;;;;;;;;5014378;28;20026;-70
2023/01/12 11:46:45;;;;;;;1.27;0.35;;;;;;;;;;5003735;28;20498;-68
2023/01/12 11:49:29;;;;;;;0.20;0.20;;;;;;;;;;5002155;28;20041;-69
2023/01/12 11:51:55;;;;;;;0.43;0.15;;;;;;;;;;5004653;28;20030;-69
2023/01/12 11:54:22;;;;;;;2.42;0.50;;;;;;;;;;5004987;28;20363;-68
2023/01/12 11:56:55;;;;;;;1.02;0.30;;;;;;;;;;5012207;28;20109;-68
2023/01/12 11:59:35;;;;;;;3.88;0.40;;;;;;;;;;5006057;28;20025;-68
2023/01/12 12:02:23;;;;;;;1.08;0.57;;;;;;;;;;5004156;28;20017;-68
2023/01/12 12:04:51;;;;;;;0.55;0.20;;;;;;;;;;5007146;28;20069;-69
2023/01/12 12:07:16;;;;;;;2.30;0.57;;;;;;;;;;5006245;28;20084;-69
2023/01/12 12:09:48;;;;;;;1.90;0.60;;;;;;;;;;5002779;28;20030;-69
2023/01/12 12:12:22;;;;;;;1.52;0.47;;;;;;;;;;5000290;28;20629;-68
2023/01/12 12:14:47;;;;;;;4.75;0.80;;;;;;;;;;5012597;28;20018;-69
2023/01/12 12:17:19;;;;;;;0.35;0.22;;;;;;;;;;5006126;28;20044;-69
2023/01/12 12:19:47;;;;;;;1.58;0.47;;;;;;;;;;5012379;28;20025;-69
2023/01/12 12:22:48;;;;;;;3.45;0.30;;;;;;;;;;5006052;28;20021;-69
2023/01/12 12:25:19;;;;;;;1.75;0.52;;;;;;;;;;4969219;28;20031;-68
2023/01/12 12:27:47;;;;;;;0.50;0.30;;;;;;;;;;4994808;28;20030;-74
2023/01/12 12:30:22;;;;;;;0.63;0.30;;;;;;;;;;5013969;28;20021;-68
2023/01/12 12:32:47;;;;;;;1.83;0.52;;;;;;;;;;5007111;28;20360;-68
2023/01/12 12:35:26;;;;;;;4.00;2.33;;;;;;;;;;5000887;28;20032;-69
2023/01/12 12:38:01;;;;;;;13.80;5.27;;;;;;;;;;5001181;28;20280;-71
2023/01/12 12:46:19;;;;;;;2.47;0.73;;;;;;;;;;5007901;28;20139;-70
2023/01/12 12:48:47;;;;;;;1.45;0.30;;;;;;;;;;5009241;28;20100;-69
2023/01/12 12:51:13;;;;;;;0.88;0.30;;;;;;;;;;5014790;28;20030;-69
2023/01/12 12:53:40;;;;;;;0.45;0.30;;;;;;;;;;5007063;28;20021;-69
2023/01/12 12:56:09;;;;;;;0.45;0.20;;;;;;;;;;5004513;28;20018;-69
2023/01/12 12:58:47;;;;;;;2.58;0.30;;;;;;;;;;5005188;28;20109;-69
2023/01/12 13:01:18;;;;;;;2.83;0.60;;;;;;;;;;5009569;28;20096;-69
2023/01/12 13:03:43;;;;;;;3.17;0.20;;;;;;;;;;5008950;28;20097;-69
2023/01/12 13:06:17;;;;;;;1.00;0.55;;;;;;;;;;5007847;28;20109;-69
2023/01/12 13:08:44;;;;;;;0.38;0.17;;;;;;;;;;4998911;28;20096;-69
2023/01/12 13:11:09;;;;;;;0.77;0.20;;;;;;;;;;5003750;28;20505;-69
2023/01/12 13:13:35;;;;;;;0.95;0.35;;;;;;;;;;5006872;28;20049;-69
2023/01/12 13:16:19;;;;;;;0.47;0.20;;;;;;;;;;5010303;28;20026;-69
2023/01/12 13:18:47;;;;;;;0.82;0.30;;;;;;;;;;5006058;28;20206;-69
2023/01/12 13:21:30;;;;;;;1.58;0.30;;;;;;;;;;5004338;28;20025;-69
2023/01/12 13:24:13;;;;;;;0.98;0.22;;;;;;;;;;5003997;28;20042;-69
2023/01/12 13:26:40;;;;;;;5.93;0.32;;;;;;;;;;5003076;28;20022;-69
2023/01/12 13:29:24;;;;;;;2.75;0.38;;;;;;;;;;5010049;28;20065;-69
2023/01/12 13:31:50;;;;;;;2.60;0.32;;;;;;;;;;5001716;28;20101;-69
2023/01/12 13:34:47;;;;;;;0.52;0.10;;;;;;;;;;5011889;28;20113;-69
2023/01/12 13:37:31;;;;;;;0.77;0.30;;;;;;;;;;4970793;28;20116;-69
2023/01/12 13:40:00;;;;;;;21.73;0.50;;;;;;;;;;5011700;28;20032;-69
2023/01/12 13:45:19;;;;;;;2.47;0.30;;;;;;;;;;4982320;28;20036;-69
2023/01/12 13:47:46;;;;;;;2.20;0.55;;;;;;;;;;5011037;28;20045;-69
2023/01/12 13:50:18;;;;;;;2.08;0.65;;;;;;;;;;5015668;28;20125;-69
2023/01/12 13:52:43;;;;;;;1.02;0.45;;;;;;;;;;5001857;28;20097;-69
2023/01/12 13:55:19;;;;;;;0.88;0.30;;;;;;;;;;5010129;28;20558;-69
2023/01/12 13:57:54;;;;;;;0.63;0.20;;;;;;;;;;5005057;28;20054;-69
2023/01/12 14:00:21;;;;;;;3.35;0.30;;;;;;;;;;5005965;28;20076;-69
2023/01/12 14:02:46;;;;;;;0.85;0.28;;;;;;;;;;5000531;28;20030;-69
2023/01/12 14:05:24;;;;;;;3.58;0.45;;;;;;;;;;5005720;28;20033;-69
2023/01/12 14:07:58;;;;;;;1.77;0.60;;;;;;;;;;5005771;28;20022;-69
2023/01/12 14:10:34;;;;;;;1.52;0.30;;;;;;;;;;5004255;28;20088;-69
2023/01/12 14:13:17;;;;;;;0.50;0.13;;;;;;;;;;5010159;28;20028;-69
2023/01/12 14:18:48;;;;;;;1.23;0.10;;;;;;;;;;5005344;28;20029;-70
2023/01/12 14:21:25;;;;;;;1.08;0.30;;;;;;;;;;5005376;28;20033;-69
2023/01/12 14:23:51;;;;;;;4.25;0.25;;;;;;;;;;4990062;28;20033;-69
2023/01/12 14:26:21;;;;;;;1.75;0.22;;;;;;;;;;5003189;28;20030;-69
2023/01/12 14:28:47;;;;;;;5.28;0.95;;;;;;;;;;5005215;28;20050;-69
2023/01/12 14:31:18;;;;;;;1.88;0.20;;;;;;;;;;5006596;28;20111;-69
2023/01/12 14:33:47;;;;;;;1.35;0.40;;;;;;;;;;5005864;28;20018;-69
2023/01/12 14:36:15;;;;;;;1.37;0.30;;;;;;;;;;5006144;28;20482;-69
2023/01/12 14:38:42;;;;;;;4.13;0.20;;;;;;;;;;5005700;28;20077;-69
2023/01/12 14:46:23;;;;;;;0.38;0.20;;;;;;;;;;5010165;28;20024;-69
2023/01/12 14:46:44;;;;;;;0.43;0.22;;;;;;;;;;5011817;28;20100;-70
2023/01/12 14:49:21;;;;;;;2.80;0.38;;;;;;;;;;5011543;28;20037;-69
2023/01/12 14:51:52;;;;;;;2.55;0.50;;;;;;;;;;5013176;28;20116;-70
2023/01/12 14:54:18;;;;;;;2.17;0.60;;;;;;;;;;5008094;28;20063;-70
2023/01/12 14:56:49;;;;;;;5.05;0.90;;;;;;;;;;5008196;28;20153;-70
2023/01/12 14:59:16;;;;;;;0.35;0.20;;;;;;;;;;5009215;28;20022;-70
2023/01/12 15:01:41;;;;;;;1.05;0.40;;;;;;;;;;5007501;28;20099;-70
2023/01/12 15:04:13;;;;;;;1.77;0.40;;;;;;;;;;5012005;28;20056;-70
2023/01/12 15:06:39;;;;;;;1.00;0.10;;;;;;;;;;5012691;28;20033;-70
2023/01/12 15:09:09;;;;;;;0.30;0.20;;;;;;;;;;5008137;28;20014;-70
2023/01/12 15:11:35;;;;;;;1.75;0.47;;;;;;;;;;5001860;28;20027;-70
2023/01/12 15:14:01;;;;;;;2.25;0.57;;;;;;;;;;5006443;28;20371;-70
2023/01/12 15:27:23;;;;;;;0.30;0.17;;;;;;;;;;5009208;28;20024;-70
2023/01/12 15:29:48;;;;;;;0.75;0.40;;;;;;;;;;5007460;28;20026;-71
2023/01/12 15:32:22;;;;;;;1.95;0.40;;;;;;;;;;5009235;28;20458;-70
2023/01/12 15:34:48;;;;;;;1.63;0.63;;;;;;;;;;5007368;28;20022;-70